Date,TemperatureHighF,TemperatureAvgF,TemperatureLowF,DewpointHighF,DewpointAvgF,DewpointLowF,HumidityHigh,HumidityAvg,HumidityLow,PressureMaxIn,PressureMinIn,WindSpeedMaxMPH,WindSpeedAvgMPH,GustSpeedMaxMPH,PrecipitationSumIn
2013-3-1,33,31,27,29,26,21,93,81,72,30.18,30.03,19,6,20,0.01
2013-3-2,31,28,27,26,23,20,89,79,71,30.18,30.14,22,7,24,0.00
2013-3-3,31,28,25,24,20,15,87,72,57,30.15,30.11,22,5,23,0.00
2013-3-4,36,29,20,28,21,16,86,71,48,30.17,30.04,13,4,13,0.00
2013-3-5,33,31,28,30,28,26,97,90,75,30.04,29.80,28,8,29,0.00
2013-3-6,34,32,29,32,30,27,96,93,89,30.30,29.96,23,8,23,0.07
2013-3-7,37,33,28,31,29,26,90,85,73,30.46,30.29,16,4,16,0.06
2013-3-8,40,32,22,26,24,20,93,72,54,30.53,30.36,12,2,13,0.00
2013-3-9,47,39,32,36,30,23,78,71,63,30.36,29.89,26,8,26,0.01
2013-3-10,59,50,42,49,43,35,93,77,62,29.91,29.65,27,7,29,0.42
2013-3-11,51,43,34,49,40,31,95,91,87,29.80,29.56,23,7,23,0.03
2013-3-12,37,33,29,31,28,24,93,81,64,30.02,29.80,24,8,25,0.00
2013-3-13,32,29,26,26,18,13,89,65,48,30.35,30.01,30,10,30,0.00
2013-3-14,39,33,25,30,24,18,90,69,52,30.35,30.12,18,4,18,0.00
2013-3-15,42,36,32,35,32,29,96,88,72,30.12,29.75,15,4,16,0.15
2013-3-16,37,33,31,36,30,23,96,88,72,30.14,29.70,20,6,20,0.00
2013-3-17,37,33,30,25,23,20,76,66,55,30.23,30.05,21,7,21,0.00
2013-3-18,36,32,25,33,28,17,95,85,70,30.05,29.62,36,9,36,0.03
2013-3-19,34,27,21,21,17,14,77,65,52,30.09,29.81,32,13,33,0.00
2013-3-20,29,23,20,18,13,9,85,64,52,30.11,30.04,23,9,25,0.00
2013-3-21,31,26,20,20,16,12,79,68,57,30.08,30.01,21,6,23,0.00
2013-3-22,34,30,25,24,20,16,81,65,49,30.11,30.04,14,4,15,0.00
2013-3-23,37,31,26,28,24,22,87,76,60,30.17,30.04,16,3,16,0.00
2013-3-24,38,33,30,30,25,23,81,73,58,30.05,29.64,28,9,31,0.00
2013-3-25,37,34,32,32,29,24,94,80,73,30.06,29.67,29,12,33,0.00
2013-3-26,37,35,32,32,31,29,95,86,74,30.26,30.06,16,4,18,0.06
2013-3-27,41,37,34,32,27,20,86,68,47,30.34,30.26,14,3,15,0.00
2013-3-28,46,38,30,29,24,20,84,59,37,30.37,30.30,12,3,12,0.00
2013-3-29,49,40,30,31,23,19,78,54,33,30.35,30.26,13,2,13,0.00
2013-3-30,58,46,29,40,31,22,76,58,40,30.27,29.86,20,4,22,0.00
2013-3-31,56,47,38,44,39,31,94,74,52,29.87,29.70,23,7,26,0.01